Time;durP1;ratioP1;P1;durP2;ratioP2;P2;SDS_P1;SDS_P2;PMS_P1;PMS_P2;Temp;Humidity;BMP_temperature;BMP_pressure;BME280_temperature;BME280_humidity;BME280_pressure;Samples;Min_cycle;Max_cycle;Signal;HPM_P1;HPM_P2
2023/09/12 00:02:23;;;;;;;3.25;2.20;;;;;;;;;;4922475;29;20097;-69
2023/09/12 00:04:50;;;;;;;3.72;1.80;;;;;;;;;;4925031;29;20027;-69
2023/09/12 00:07:16;;;;;;;3.70;2.03;;;;;;;;;;4922626;29;20083;-69
2023/09/12 00:09:42;;;;;;;3.00;1.98;;;;;;;;;;4922852;29;20059;-69
2023/09/12 00:12:08;;;;;;;4.03;1.67;;;;;;;;;;4921901;29;20044;-69
2023/09/12 00:14:34;;;;;;;3.38;1.88;;;;;;;;;;4922895;29;20024;-69
2023/09/12 00:17:00;;;;;;;3.25;1.80;;;;;;;;;;4905399;29;20031;-69
2023/09/12 00:19:26;;;;;;;3.42;2.20;;;;;;;;;;4937444;29;20110;-69
2023/09/12 00:21:53;;;;;;;2.85;1.50;;;;;;;;;;4940414;29;20531;-71
2023/09/12 00:24:19;;;;;;;3.15;1.92;;;;;;;;;;4942180;29;20063;-71
2023/09/12 00:26:45;;;;;;;2.60;1.65;;;;;;;;;;4941123;29;20477;-71
2023/09/12 00:29:11;;;;;;;2.22;1.67;;;;;;;;;;4923649;29;20517;-71
2023/09/12 00:31:37;;;;;;;2.90;1.67;;;;;;;;;;4941220;29;20031;-71
2023/09/12 00:34:03;;;;;;;3.47;1.58;;;;;;;;;;4924488;29;20035;-71
2023/09/12 00:36:29;;;;;;;2.22;1.80;;;;;;;;;;4924268;29;20031;-71
2023/09/12 00:38:55;;;;;;;2.28;1.52;;;;;;;;;;4933923;29;20031;-71
2023/09/12 00:41:21;;;;;;;2.10;1.70;;;;;;;;;;4923604;29;20028;-71
2023/09/12 00:43:47;;;;;;;2.88;1.60;;;;;;;;;;4921464;29;20032;-71
2023/09/12 00:46:17;;;;;;;3.05;1.70;;;;;;;;;;4922491;29;20035;-71
2023/09/12 00:48:43;;;;;;;2.58;1.50;;;;;;;;;;4923905;29;20474;-71
2023/09/12 00:51:09;;;;;;;3.05;1.70;;;;;;;;;;4938912;29;20034;-71
2023/09/12 00:53:35;;;;;;;2.35;1.60;;;;;;;;;;4913722;29;20024;-71
2023/09/12 00:56:02;;;;;;;3.65;2.28;;;;;;;;;;4921577;29;20393;-69
2023/09/12 00:58:28;;;;;;;3.40;2.42;;;;;;;;;;4921457;29;20079;-69
2023/09/12 01:00:54;;;;;;;3.42;2.13;;;;;;;;;;4921421;29;20039;-69
2023/09/12 01:03:20;;;;;;;3.35;2.20;;;;;;;;;;4904163;29;20035;-69
2023/09/12 01:05:46;;;;;;;2.55;2.05;;;;;;;;;;4925537;29;20059;-69
2023/09/12 01:08:12;;;;;;;4.13;2.30;;;;;;;;;;4940307;29;20609;-69
2023/09/12 01:10:38;;;;;;;3.67;2.05;;;;;;;;;;4923195;29;20036;-69
2023/09/12 01:13:04;;;;;;;2.53;2.05;;;;;;;;;;4940059;29;20398;-71
2023/09/12 01:15:30;;;;;;;2.20;1.88;;;;;;;;;;4940174;29;20028;-71
2023/09/12 01:17:57;;;;;;;2.72;1.98;;;;;;;;;;4940911;29;20023;-71
2023/09/12 01:20:29;;;;;;;4.63;2.40;;;;;;;;;;4939549;29;20027;-71
2023/09/12 01:23:15;;;;;;;3.67;2.13;;;;;;;;;;4940964;29;20035;-71
2023/09/12 01:25:59;;;;;;;2.97;1.98;;;;;;;;;;4939767;29;20118;-69
2023/09/12 01:28:30;;;;;;;3.95;2.45;;;;;;;;;;4939783;29;20035;-69
2023/09/12 01:30:56;;;;;;;2.30;1.70;;;;;;;;;;4939924;29;20028;-69
2023/09/12 01:33:22;;;;;;;3.75;2.25;;;;;;;;;;4939985;29;20028;-70
2023/09/12 01:35:48;;;;;;;5.63;2.85;;;;;;;;;;4939736;29;20024;-70
2023/09/12 01:38:14;;;;;;;2.92;2.40;;;;;;;;;;4937401;29;20031;-70
2023/09/12 01:40:48;;;;;;;3.88;2.47;;;;;;;;;;4921568;29;20032;-69
2023/09/12 01:43:16;;;;;;;3.83;2.50;;;;;;;;;;4919904;29;20107;-70
2023/09/12 01:45:42;;;;;;;3.55;2.22;;;;;;;;;;4920635;29;20039;-70
2023/09/12 01:48:09;;;;;;;5.05;2.72;;;;;;;;;;4922052;29;20034;-69
2023/09/12 01:50:36;;;;;;;4.38;2.60;;;;;;;;;;4922774;29;20038;-68
2023/09/12 01:53:03;;;;;;;5.03;2.58;;;;;;;;;;4934489;29;20048;-70
2023/09/12 01:55:29;;;;;;;4.90;2.50;;;;;;;;;;4920943;29;20032;-70
2023/09/12 01:57:57;;;;;;;4.85;2.42;;;;;;;;;;4920289;29;20395;-71
2023/09/12 02:00:23;;;;;;;3.38;2.30;;;;;;;;;;4920866;29;20032;-70
2023/09/12 02:02:50;;;;;;;4.25;2.45;;;;;;;;;;4920144;29;20032;-71
2023/09/12 02:05:18;;;;;;;2.53;2.33;;;;;;;;;;4921055;29;20032;-71
2023/09/12 02:07:45;;;;;;;3.70;2.20;;;;;;;;;;4903495;29;20036;-70
2023/09/12 02:10:11;;;;;;;2.78;2.00;;;;;;;;;;4903772;29;20032;-70
2023/09/12 02:12:37;;;;;;;3.80;2.00;;;;;;;;;;4902938;29;20099;-70
2023/09/12 02:15:03;;;;;;;3.85;2.70;;;;;;;;;;4920590;29;20469;-69
2023/09/12 02:17:29;;;;;;;4.93;2.35;;;;;;;;;;4920898;29;20020;-70
2023/09/12 02:19:55;;;;;;;5.28;2.45;;;;;;;;;;4920219;29;20043;-69
2023/09/12 02:22:21;;;;;;;3.58;2.60;;;;;;;;;;4913463;29;20023;-69
2023/09/12 02:24:47;;;;;;;2.85;2.13;;;;;;;;;;4939967;29;20039;-69
2023/09/12 02:27:13;;;;;;;3.88;2.13;;;;;;;;;;4939772;29;20512;-69
2023/09/12 02:29:40;;;;;;;2.75;2.08;;;;;;;;;;4939245;29;20062;-71
2023/09/12 02:32:06;;;;;;;4.25;2.58;;;;;;;;;;4922365;29;20030;-71
2023/09/12 02:34:33;;;;;;;3.00;1.98;;;;;;;;;;4922840;29;20599;-71
2023/09/12 02:36:59;;;;;;;5.57;2.50;;;;;;;;;;4939240;29;20118;-71
2023/09/12 02:39:25;;;;;;;5.40;2.90;;;;;;;;;;4928382;29;20039;-71
2023/09/12 02:41:51;;;;;;;3.92;2.47;;;;;;;;;;4921294;29;20028;-71
2023/09/12 02:44:17;;;;;;;5.78;2.78;;;;;;;;;;4920949;29;20035;-70
2023/09/12 02:46:43;;;;;;;4.90;3.08;;;;;;;;;;4920658;29;20093;-70
2023/09/12 02:49:09;;;;;;;3.72;2.60;;;;;;;;;;4922012;29;20036;-70
2023/09/12 02:51:38;;;;;;;4.15;3.03;;;;;;;;;;4923340;29;20016;-70
2023/09/12 02:54:04;;;;;;;5.57;3.20;;;;;;;;;;4908668;29;20032;-70
2023/09/12 02:56:30;;;;;;;4.70;3.03;;;;;;;;;;4919783;29;20024;-70
2023/09/12 02:58:56;;;;;;;4.32;2.95;;;;;;;;;;4920326;29;20528;-70
2023/09/12 03:01:27;;;;;;;4.90;3.22;;;;;;;;;;4919493;29;20028;-70
2023/09/12 03:03:53;;;;;;;2.92;2.55;;;;;;;;;;4920212;29;20028;-70
2023/09/12 03:06:19;;;;;;;3.75;2.85;;;;;;;;;;4920619;29;20046;-70
2023/09/12 03:08:45;;;;;;;5.07;3.50;;;;;;;;;;4920384;29;20059;-70
2023/09/12 03:11:11;;;;;;;3.58;2.55;;;;;;;;;;4920138;29;20540;-70
2023/09/12 03:13:38;;;;;;;5.05;2.72;;;;;;;;;;4919297;29;20052;-69
2023/09/12 03:16:04;;;;;;;7.13;3.13;;;;;;;;;;4920286;29;20036;-68
2023/09/12 03:18:31;;;;;;;4.38;2.75;;;;;;;;;;4920400;29;20107;-68
2023/09/12 03:20:56;;;;;;;5.43;2.85;;;;;;;;;;4919962;29;20688;-68
2023/09/12 03:23:22;;;;;;;3.78;2.33;;;;;;;;;;4935838;29;20024;-68
2023/09/12 03:25:48;;;;;;;3.58;2.55;;;;;;;;;;4921786;29;20036;-70
2023/09/12 03:28:14;;;;;;;3.95;2.88;;;;;;;;;;4937693;29;20477;-70
2023/09/12 03:30:40;;;;;;;4.70;3.20;;;;;;;;;;4919724;29;20028;-70
2023/09/12 03:33:07;;;;;;;4.18;2.78;;;;;;;;;;4919887;29;20394;-70
2023/09/12 03:35:33;;;;;;;4.18;2.78;;;;;;;;;;4919554;29;20030;-70
2023/09/12 03:38:00;;;;;;;3.58;2.85;;;;;;;;;;4920028;29;20020;-70
2023/09/12 03:40:26;;;;;;;4.78;3.03;;;;;;;;;;4921366;29;20473;-69
2023/09/12 03:42:52;;;;;;;4.25;3.50;;;;;;;;;;4919701;29;20036;-70
2023/09/12 03:45:18;;;;;;;7.05;3.90;;;;;;;;;;4903315;29;20025;-70
2023/09/12 03:47:46;;;;;;;6.65;3.47;;;;;;;;;;4920506;29;20024;-70
2023/09/12 03:50:13;;;;;;;4.50;2.90;;;;;;;;;;4919883;29;20049;-69
2023/09/12 03:52:39;;;;;;;4.28;2.50;;;;;;;;;;4925964;29;20040;-69
2023/09/12 03:55:05;;;;;;;3.53;2.72;;;;;;;;;;4919952;29;20035;-69
2023/09/12 03:57:31;;;;;;;5.30;3.30;;;;;;;;;;4919850;29;20031;-69
2023/09/12 03:59:57;;;;;;;6.18;3.95;;;;;;;;;;4919084;29;20068;-69
2023/09/12 04:02:24;;;;;;;4.50;3.30;;;;;;;;;;4919896;29;20096;-69
2023/09/12 04:04:51;;;;;;;4.95;3.30;;;;;;;;;;4923087;29;20122;-69
2023/09/12 04:07:17;;;;;;;4.75;2.75;;;;;;;;;;4922394;29;20020;-69
2023/09/12 04:09:43;;;;;;;3.78;2.85;;;;;;;;;;4923235;29;20032;-69
2023/09/12 04:12:09;;;;;;;5.03;3.15;;;;;;;;;;4922613;29;20048;-69
2023/09/12 04:14:36;;;;;;;4.72;3.40;;;;;;;;;;4923137;29;20500;-69
2023/09/12 04:17:03;;;;;;;6.93;3.28;;;;;;;;;;4923062;29;20114;-69
2023/09/12 04:19:30;;;;;;;5.35;3.70;;;;;;;;;;4922768;29;20027;-69
2023/09/12 04:21:56;;;;;;;4.18;3.45;;;;;;;;;;4924403;29;20025;-69
2023/09/12 04:24:22;;;;;;;3.53;2.75;;;;;;;;;;4924635;29;20031;-69
2023/09/12 04:26:48;;;;;;;4.60;3.13;;;;;;;;;;4940496;29;20028;-69
2023/09/12 04:29:14;;;;;;;4.95;3.63;;;;;;;;;;4941162;29;20065;-68
2023/09/12 04:31:40;;;;;;;5.97;3.58;;;;;;;;;;4923792;29;20035;-68
2023/09/12 04:34:06;;;;;;;5.63;3.67;;;;;;;;;;4941100;29;20027;-69
2023/09/12 04:36:33;;;;;;;3.50;2.60;;;;;;;;;;4932626;29;20122;-69
2023/09/12 04:39:00;;;;;;;4.57;3.20;;;;;;;;;;4932394;29;20028;-69
2023/09/12 04:41:26;;;;;;;5.07;2.97;;;;;;;;;;4923022;29;20039;-68
2023/09/12 04:43:52;;;;;;;4.55;3.63;;;;;;;;;;4921588;29;20039;-68
2023/09/12 04:46:18;;;;;;;6.72;3.45;;;;;;;;;;4921651;29;20055;-68
2023/09/12 04:48:44;;;;;;;4.75;3.03;;;;;;;;;;4923144;29;20107;-69
2023/09/12 04:51:10;;;;;;;5.97;3.47;;;;;;;;;;4922019;29;20024;-68
2023/09/12 04:53:36;;;;;;;4.45;3.10;;;;;;;;;;4926374;29;20028;-68
2023/09/12 04:56:02;;;;;;;5.82;3.38;;;;;;;;;;4905521;29;20020;-69
2023/09/12 04:58:28;;;;;;;3.58;2.88;;;;;;;;;;4922460;29;20035;-69
2023/09/12 05:00:55;;;;;;;4.68;2.65;;;;;;;;;;4921508;29;20103;-69
2023/09/12 05:03:21;;;;;;;5.13;3.35;;;;;;;;;;4922337;29;20111;-69
2023/09/12 05:05:48;;;;;;;5.30;2.95;;;;;;;;;;4921944;29;20024;-69
2023/09/12 05:08:14;;;;;;;3.47;2.55;;;;;;;;;;4921966;29;20032;-69
2023/09/12 05:10:40;;;;;;;3.42;2.92;;;;;;;;;;4921606;29;20056;-69
2023/09/12 05:13:06;;;;;;;4.72;3.00;;;;;;;;;;4921757;29;20059;-69
2023/09/12 05:15:32;;;;;;;3.97;2.83;;;;;;;;;;4903857;29;20417;-69
2023/09/12 05:17:58;;;;;;;3.90;2.67;;;;;;;;;;4921696;29;20063;-69
2023/09/12 05:20:24;;;;;;;4.88;3.63;;;;;;;;;;4921047;29;20029;-69
2023/09/12 05:22:50;;;;;;;4.82;2.70;;;;;;;;;;4928465;29;20032;-69
2023/09/12 05:25:16;;;;;;;6.53;3.53;;;;;;;;;;4940735;29;20083;-69
2023/09/12 05:27:42;;;;;;;4.20;3.25;;;;;;;;;;4940623;29;20036;-69
2023/09/12 05:30:08;;;;;;;4.20;2.78;;;;;;;;;;4940710;29;20028;-69
2023/09/12 05:32:36;;;;;;;4.85;2.97;;;;;;;;;;4941649;29;20393;-69
2023/09/12 05:35:02;;;;;;;4.75;2.70;;;;;;;;;;4940380;29;20031;-69
2023/09/12 05:37:28;;;;;;;4.80;3.03;;;;;;;;;;4940037;29;20032;-69
2023/09/12 05:39:54;;;;;;;4.45;2.60;;;;;;;;;;4926445;29;20040;-69
2023/09/12 05:42:22;;;;;;;4.78;3.03;;;;;;;;;;4921767;29;20042;-69
2023/09/12 05:44:49;;;;;;;4.28;2.88;;;;;;;;;;4932133;29;20036;-69
2023/09/12 05:47:15;;;;;;;5.28;2.80;;;;;;;;;;4921786;29;20059;-69
2023/09/12 05:49:41;;;;;;;5.03;3.00;;;;;;;;;;4934239;29;20032;-69
2023/09/12 05:52:07;;;;;;;4.03;3.22;;;;;;;;;;4922014;29;20100;-69
2023/09/12 05:54:33;;;;;;;4.43;3.33;;;;;;;;;;4922286;29;20386;-69
2023/09/12 05:56:59;;;;;;;5.78;3.55;;;;;;;;;;4923726;29;20156;-69
2023/09/12 05:59:25;;;;;;;4.28;2.75;;;;;;;;;;4923033;29;20063;-70
2023/09/12 06:01:52;;;;;;;5.40;3.10;;;;;;;;;;4910341;29;20034;-71
2023/09/12 06:04:18;;;;;;;4.28;2.97;;;;;;;;;;4909256;29;20024;-70
2023/09/12 06:06:45;;;;;;;4.55;2.97;;;;;;;;;;4929289;29;20111;-70
2023/09/12 06:09:11;;;;;;;4.60;2.80;;;;;;;;;;4914769;29;20028;-70
2023/09/12 06:11:37;;;;;;;3.58;2.08;;;;;;;;;;4902868;29;20040;-70
2023/09/12 06:14:03;;;;;;;3.38;2.63;;;;;;;;;;4919684;29;20028;-70
2023/09/12 06:16:29;;;;;;;4.57;3.30;;;;;;;;;;4920060;29;20513;-70
2023/09/12 06:18:55;;;;;;;5.60;3.40;;;;;;;;;;4902832;29;20034;-69
2023/09/12 06:21:21;;;;;;;5.75;3.63;;;;;;;;;;4905895;29;20550;-71
2023/09/12 06:23:48;;;;;;;4.75;3.50;;;;;;;;;;4934304;29;20060;-70
2023/09/12 06:26:14;;;;;;;4.10;3.05;;;;;;;;;;4921611;29;20028;-71
2023/09/12 06:28:40;;;;;;;5.97;3.05;;;;;;;;;;4921308;29;20095;-70
2023/09/12 06:31:09;;;;;;;3.95;2.70;;;;;;;;;;4938679;29;20083;-71
2023/09/12 06:33:35;;;;;;;3.88;2.72;;;;;;;;;;4939157;29;20378;-70
2023/09/12 06:36:02;;;;;;;4.80;3.20;;;;;;;;;;4922061;29;20064;-70
2023/09/12 06:38:28;;;;;;;5.05;3.58;;;;;;;;;;4934424;29;20016;-71
2023/09/12 06:40:55;;;;;;;3.78;2.72;;;;;;;;;;4920680;29;20557;-70
2023/09/12 06:43:21;;;;;;;4.88;3.47;;;;;;;;;;4902000;29;20035;-68
2023/09/12 06:45:48;;;;;;;7.60;3.70;;;;;;;;;;4919900;29;20036;-69
2023/09/12 06:48:14;;;;;;;4.15;2.97;;;;;;;;;;4924254;29;20028;-70
2023/09/12 06:50:40;;;;;;;8.65;4.95;;;;;;;;;;4919399;29;20036;-70
2023/09/12 06:53:07;;;;;;;5.13;3.60;;;;;;;;;;4921608;29;20039;-70
2023/09/12 06:55:33;;;;;;;6.13;3.17;;;;;;;;;;4938276;29;20034;-69
2023/09/12 06:57:59;;;;;;;6.25;3.88;;;;;;;;;;4930381;29;20039;-69
2023/09/12 07:00:26;;;;;;;5.75;3.22;;;;;;;;;;4902798;29;20116;-69
2023/09/12 07:02:52;;;;;;;4.60;3.30;;;;;;;;;;4919192;29;20080;-69
2023/09/12 07:05:18;;;;;;;6.40;3.42;;;;;;;;;;4920137;29;20036;-69
2023/09/12 07:07:44;;;;;;;6.28;3.88;;;;;;;;;;4920287;29;20032;-70
2023/09/12 07:10:11;;;;;;;5.80;3.15;;;;;;;;;;4920204;29;20032;-70
2023/09/12 07:12:37;;;;;;;7.93;4.82;;;;;;;;;;4919174;29;20044;-69
2023/09/12 07:15:03;;;;;;;5.80;3.42;;;;;;;;;;4920058;29;20405;-69
2023/09/12 07:17:29;;;;;;;6.07;3.30;;;;;;;;;;4919582;29;20024;-69
2023/09/12 07:19:55;;;;;;;6.00;4.00;;;;;;;;;;4919377;29;20150;-69
2023/09/12 07:22:21;;;;;;;4.15;2.83;;;;;;;;;;4919993;29;20377;-69
2023/09/12 07:24:47;;;;;;;5.85;3.65;;;;;;;;;;4934937;29;20596;-69
2023/09/12 07:27:13;;;;;;;4.88;3.08;;;;;;;;;;4938406;29;20028;-70
2023/09/12 07:29:39;;;;;;;5.03;3.30;;;;;;;;;;4911232;29;20490;-70
2023/09/12 07:32:05;;;;;;;5.82;3.60;;;;;;;;;;4920018;29;20485;-70
2023/09/12 07:34:31;;;;;;;3.95;2.67;;;;;;;;;;4920081;29;20444;-71
2023/09/12 07:36:57;;;;;;;4.43;3.35;;;;;;;;;;4919916;29;20028;-67
2023/09/12 07:39:23;;;;;;;3.97;3.13;;;;;;;;;;4924111;29;20024;-66
2023/09/12 07:41:49;;;;;;;4.43;2.75;;;;;;;;;;4923507;29;20036;-67
2023/09/12 07:44:16;;;;;;;4.47;2.95;;;;;;;;;;4923233;29;20092;-67
2023/09/12 07:46:42;;;;;;;5.10;3.42;;;;;;;;;;4923320;29;20039;-67
2023/09/12 07:49:09;;;;;;;6.20;3.17;;;;;;;;;;4931815;29;20103;-67
2023/09/12 07:51:35;;;;;;;4.18;3.00;;;;;;;;;;4930906;29;20024;-67
2023/09/12 07:54:01;;;;;;;3.47;2.78;;;;;;;;;;4912158;29;20040;-68
2023/09/12 07:56:27;;;;;;;3.75;3.03;;;;;;;;;;4923371;29;20108;-68
2023/09/12 07:58:55;;;;;;;4.90;3.25;;;;;;;;;;4923757;29;20028;-69
2023/09/12 08:01:21;;;;;;;5.03;3.33;;;;;;;;;;4906533;29;20035;-68
2023/09/12 08:03:47;;;;;;;3.33;2.67;;;;;;;;;;4923609;29;20088;-68
2023/09/12 08:06:13;;;;;;;5.80;3.10;;;;;;;;;;4923467;29;20532;-68
2023/09/12 08:08:39;;;;;;;4.28;2.97;;;;;;;;;;4923731;29;20040;-68
2023/09/12 08:11:05;;;;;;;3.80;2.80;;;;;;;;;;4906190;29;20039;-68
2023/09/12 08:13:31;;;;;;;3.80;2.35;;;;;;;;;;4923100;29;20056;-68
2023/09/12 08:15:57;;;;;;;5.25;2.88;;;;;;;;;;4923180;29;20024;-69
2023/09/12 08:18:27;;;;;;;5.25;2.92;;;;;;;;;;4926762;29;20036;-68
2023/09/12 08:20:53;;;;;;;4.13;2.90;;;;;;;;;;4905930;29;20119;-67
2023/09/12 08:23:19;;;;;;;4.93;2.97;;;;;;;;;;4923019;29;20063;-68
2023/09/12 08:25:45;;;;;;;4.88;2.63;;;;;;;;;;4905827;29;20123;-68
2023/09/12 08:28:11;;;;;;;2.88;2.38;;;;;;;;;;4929703;29;20028;-67
2023/09/12 08:30:37;;;;;;;2.83;2.40;;;;;;;;;;4942058;29;20023;-68
2023/09/12 08:33:03;;;;;;;3.00;2.40;;;;;;;;;;4942120;29;20024;-67
2023/09/12 08:35:29;;;;;;;4.75;2.70;;;;;;;;;;4932211;29;20026;-67
2023/09/12 08:37:55;;;;;;;5.20;2.20;;;;;;;;;;4905996;29;20024;-67
2023/09/12 08:40:23;;;;;;;3.85;2.35;;;;;;;;;;4915364;29;20028;-67
2023/09/12 08:42:50;;;;;;;5.72;2.65;;;;;;;;;;4911949;29;20126;-67
2023/09/12 08:45:17;;;;;;;4.60;2.50;;;;;;;;;;4925493;29;20036;-69
2023/09/12 08:47:44;;;;;;;3.22;2.53;;;;;;;;;;4924325;29;20028;-69
2023/09/12 08:50:12;;;;;;;3.50;2.38;;;;;;;;;;4922447;29;20024;-69
2023/09/12 08:52:38;;;;;;;5.22;2.30;;;;;;;;;;4927410;29;20087;-67
2023/09/12 08:55:04;;;;;;;4.60;2.47;;;;;;;;;;4941267;29;20023;-68
2023/09/12 08:57:33;;;;;;;5.28;2.70;;;;;;;;;;4941103;29;20028;-67
2023/09/12 09:00:05;;;;;;;2.80;2.35;;;;;;;;;;4941276;29;20465;-67
2023/09/12 09:02:31;;;;;;;3.15;2.40;;;;;;;;;;4924113;29;20032;-67
2023/09/12 09:04:58;;;;;;;2.70;1.83;;;;;;;;;;4941383;29;20034;-69
2023/09/12 09:07:25;;;;;;;2.45;2.00;;;;;;;;;;4926087;29;20381;-69
2023/09/12 09:09:53;;;;;;;3.33;1.70;;;;;;;;;;4922258;29;20024;-68
2023/09/12 09:12:19;;;;;;;2.42;1.70;;;;;;;;;;4921988;29;20066;-68
2023/09/12 09:14:45;;;;;;;1.98;1.58;;;;;;;;;;4922353;29;20028;-68
2023/09/12 09:17:13;;;;;;;2.08;1.50;;;;;;;;;;4922221;29;20024;-68
2023/09/12 09:19:43;;;;;;;3.53;1.42;;;;;;;;;;4922291;29;20024;-68
2023/09/12 09:22:09;;;;;;;3.40;1.88;;;;;;;;;;4921886;29;20028;-68
2023/09/12 09:24:35;;;;;;;3.05;1.42;;;;;;;;;;4922196;29;20028;-68
2023/09/12 09:27:01;;;;;;;2.75;1.50;;;;;;;;;;4921407;29;20398;-68
2023/09/12 09:29:34;;;;;;;3.85;1.90;;;;;;;;;;4931379;29;20035;-67
2023/09/12 09:32:00;;;;;;;;;;;;;;;;;;4928028;29;20031;-69
2023/09/12 09:34:31;;;;;;;2.45;1.50;;;;;;;;;;4927827;29;19907;-68
2023/09/12 09:36:58;;;;;;;3.42;1.60;;;;;;;;;;4922708;29;20449;-68
2023/09/12 09:39:31;;;;;;;2.75;1.52;;;;;;;;;;4926910;29;20020;-68
2023/09/12 09:41:57;;;;;;;2.72;1.13;;;;;;;;;;4921502;29;20362;-68
2023/09/12 09:44:26;;;;;;;2.47;1.35;;;;;;;;;;4921555;29;20080;-66
2023/09/12 09:46:53;;;;;;;1.77;1.20;;;;;;;;;;4921361;29;20020;-67
2023/09/12 09:49:20;;;;;;;2.25;1.20;;;;;;;;;;4924569;29;20032;-67
2023/09/12 09:51:46;;;;;;;2.72;1.50;;;;;;;;;;4921404;29;20036;-67
2023/09/12 09:54:12;;;;;;;2.17;1.60;;;;;;;;;;4921334;29;20032;-67
2023/09/12 09:56:53;;;;;;;2.83;1.42;;;;;;;;;;4921027;29;20028;-67
2023/09/12 09:59:22;;;;;;;2.33;1.30;;;;;;;;;;4921121;29;20638;-67
2023/09/12 10:01:49;;;;;;;3.97;1.88;;;;;;;;;;4920380;29;20069;-67
2023/09/12 10:04:15;;;;;;;2.55;1.58;;;;;;;;;;4920736;29;20052;-67
2023/09/12 10:06:44;;;;;;;2.38;1.50;;;;;;;;;;4930204;29;20036;-73
2023/09/12 10:09:11;;;;;;;3.80;1.58;;;;;;;;;;4903880;29;20486;-73
2023/09/12 10:11:38;;;;;;;3.03;1.27;;;;;;;;;;4920447;29;20486;-73
2023/09/12 10:14:05;;;;;;;1.83;1.38;;;;;;;;;;4904023;29;20387;-67
2023/09/12 10:16:32;;;;;;;2.90;1.40;;;;;;;;;;4920970;29;20061;-67
2023/09/12 10:18:58;;;;;;;2.13;1.27;;;;;;;;;;4920654;29;20035;-67
2023/09/12 10:21:29;;;;;;;3.17;1.52;;;;;;;;;;4920138;29;20055;-67
2023/09/12 10:23:57;;;;;;;1.90;1.10;;;;;;;;;;4920483;29;20032;-67
2023/09/12 10:26:23;;;;;;;3.35;1.38;;;;;;;;;;4903407;29;20079;-67
2023/09/12 10:28:51;;;;;;;2.42;1.50;;;;;;;;;;4920490;29;20039;-69
2023/09/12 10:31:17;;;;;;;1.60;1.02;;;;;;;;;;4920450;29;20028;-67
2023/09/12 10:33:44;;;;;;;4.47;1.20;;;;;;;;;;4920400;29;20103;-68
2023/09/12 10:36:11;;;;;;;1.42;0.98;;;;;;;;;;4920628;29;20044;-67
2023/09/12 10:38:41;;;;;;;2.17;1.48;;;;;;;;;;4920434;29;20101;-68
2023/09/12 10:41:09;;;;;;;1.75;1.10;;;;;;;;;;4921707;29;20032;-68
2023/09/12 10:43:36;;;;;;;3.17;1.27;;;;;;;;;;4920460;29;20024;-68
2023/09/12 10:46:03;;;;;;;2.00;0.90;;;;;;;;;;4920509;29;20025;-68
2023/09/12 10:48:30;;;;;;;2.20;1.00;;;;;;;;;;4921855;29;20083;-67
2023/09/12 10:50:58;;;;;;;2.60;0.93;;;;;;;;;;4903234;29;20032;-69
2023/09/12 10:53:24;;;;;;;1.45;0.82;;;;;;;;;;4920040;29;20062;-69
2023/09/12 10:56:15;;;;;;;2.83;0.90;;;;;;;;;;4920178;29;20035;-67
2023/09/12 10:59:01;;;;;;;2.08;0.70;;;;;;;;;;4920276;29;20028;-67
2023/09/12 11:01:27;;;;;;;1.10;0.68;;;;;;;;;;4920005;29;20438;-67
2023/09/12 11:03:53;;;;;;;1.20;0.75;;;;;;;;;;4920136;29;20039;-67
2023/09/12 11:06:37;;;;;;;2.53;0.80;;;;;;;;;;4920259;29;20028;-68
2023/09/12 11:09:16;;;;;;;2.35;0.90;;;;;;;;;;4902712;29;20040;-67
2023/09/12 11:11:46;;;;;;;2.25;1.10;;;;;;;;;;4920478;29;20067;-67
2023/09/12 11:14:12;;;;;;;2.45;1.10;;;;;;;;;;4922476;29;20027;-67
2023/09/12 11:16:39;;;;;;;1.88;1.27;;;;;;;;;;4929313;29;20525;-69
2023/09/12 11:19:20;;;;;;;1.45;0.82;;;;;;;;;;4925727;29;20026;-69
2023/09/12 11:21:58;;;;;;;1.60;0.90;;;;;;;;;;4926360;29;20114;-69
2023/09/12 11:24:24;;;;;;;1.83;0.82;;;;;;;;;;4933897;29;20034;-69
2023/09/12 11:26:57;;;;;;;1.50;0.60;;;;;;;;;;4931891;29;20084;-69
2023/09/12 11:29:28;;;;;;;3.95;1.02;;;;;;;;;;4915463;29;20031;-68
2023/09/12 11:31:58;;;;;;;1.98;0.70;;;;;;;;;;4939429;29;20158;-67
2023/09/12 11:34:28;;;;;;;1.65;0.80;;;;;;;;;;4923819;29;20028;-68
2023/09/12 11:37:00;;;;;;;1.65;0.73;;;;;;;;;;4923719;29;20028;-68
2023/09/12 11:39:28;;;;;;;1.63;0.80;;;;;;;;;;4924219;29;20031;-67
2023/09/12 11:41:55;;;;;;;2.78;0.90;;;;;;;;;;4923853;29;20049;-67
2023/09/12 11:44:22;;;;;;;2.72;0.68;;;;;;;;;;4923660;29;20024;-68
2023/09/12 11:46:49;;;;;;;1.02;0.47;;;;;;;;;;4923574;29;20024;-68
2023/09/12 11:49:15;;;;;;;1.52;0.70;;;;;;;;;;4932591;29;20016;-68
2023/09/12 11:51:51;;;;;;;2.22;1.08;;;;;;;;;;4906470;29;20028;-68
2023/09/12 11:54:21;;;;;;;1.13;0.80;;;;;;;;;;4923299;29;20024;-68
2023/09/12 11:56:56;;;;;;;1.58;0.70;;;;;;;;;;4923451;29;20020;-68
2023/09/12 11:59:22;;;;;;;2.45;0.80;;;;;;;;;;4923402;29;20031;-68
2023/09/12 12:01:49;;;;;;;1.73;0.70;;;;;;;;;;4906416;29;20039;-68
2023/09/12 12:04:15;;;;;;;2.97;1.00;;;;;;;;;;4923272;29;20402;-68
2023/09/12 12:06:41;;;;;;;1.58;0.82;;;;;;;;;;4906250;29;20397;-68
2023/09/12 12:09:07;;;;;;;1.48;0.57;;;;;;;;;;4906096;29;20033;-68
2023/09/12 12:11:33;;;;;;;1.27;0.80;;;;;;;;;;4922695;29;20032;-69
2023/09/12 12:14:09;;;;;;;2.05;0.80;;;;;;;;;;4923014;29;20434;-68
2023/09/12 12:16:35;;;;;;;1.27;0.77;;;;;;;;;;4923059;29;20039;-68
2023/09/12 12:19:01;;;;;;;3.05;0.82;;;;;;;;;;4923061;29;20394;-67
2023/09/12 12:21:27;;;;;;;1.58;0.80;;;;;;;;;;4923059;29;20478;-67
2023/09/12 12:24:03;;;;;;;2.03;0.70;;;;;;;;;;4929217;29;20038;-67
2023/09/12 12:26:30;;;;;;;2.10;0.90;;;;;;;;;;4922444;29;20040;-68
2023/09/12 12:28:56;;;;;;;1.48;0.80;;;;;;;;;;4922841;29;20028;-68
2023/09/12 12:31:24;;;;;;;2.40;0.93;;;;;;;;;;4923562;29;20502;-68
2023/09/12 12:33:51;;;;;;;1.67;0.70;;;;;;;;;;4912858;29;20027;-67
2023/09/12 12:36:17;;;;;;;1.10;0.70;;;;;;;;;;4930729;29;20386;-68
2023/09/12 12:38:46;;;;;;;2.28;0.80;;;;;;;;;;4911004;29;20024;-67
2023/09/12 12:41:12;;;;;;;1.92;1.17;;;;;;;;;;4933077;29;20051;-67
2023/09/12 12:43:41;;;;;;;3.28;1.10;;;;;;;;;;4932318;29;20116;-67
2023/09/12 12:46:10;;;;;;;3.67;1.13;;;;;;;;;;4914424;29;20024;-67
2023/09/12 12:48:36;;;;;;;1.95;1.13;;;;;;;;;;4931703;29;20055;-67
2023/09/12 12:51:19;;;;;;;2.53;1.00;;;;;;;;;;4911312;29;20039;-67
2023/09/12 12:53:50;;;;;;;2.78;0.98;;;;;;;;;;4929923;29;20035;-68
2023/09/12 12:56:18;;;;;;;2.83;1.30;;;;;;;;;;4922354;29;20107;-67
2023/09/12 12:58:51;;;;;;;2.75;1.00;;;;;;;;;;4909289;29;20076;-70
2023/09/12 13:01:17;;;;;;;2.88;1.00;;;;;;;;;;4922230;29;20124;-68
2023/09/12 13:03:44;;;;;;;2.53;1.02;;;;;;;;;;4922344;29;20032;-67
2023/09/12 13:06:14;;;;;;;2.03;1.25;;;;;;;;;;4922851;29;20043;-67
2023/09/12 13:08:44;;;;;;;1.83;0.98;;;;;;;;;;4905414;29;20033;-68
2023/09/12 13:11:10;;;;;;;2.38;1.55;;;;;;;;;;4922204;29;20123;-67
2023/09/12 13:13:40;;;;;;;2.85;1.77;;;;;;;;;;4905029;29;20076;-68
2023/09/12 13:16:09;;;;;;;2.25;1.30;;;;;;;;;;4906803;29;20024;-68
2023/09/12 13:18:36;;;;;;;2.03;1.13;;;;;;;;;;4931143;29;20496;-67
2023/09/12 13:21:02;;;;;;;1.75;1.20;;;;;;;;;;4922181;29;20593;-73
2023/09/12 13:23:28;;;;;;;3.65;1.90;;;;;;;;;;4926240;29;20095;-70
2023/09/12 13:25:55;;;;;;;2.65;1.70;;;;;;;;;;4937357;29;20481;-70
2023/09/12 13:28:25;;;;;;;1.90;1.30;;;;;;;;;;4921633;29;20107;-70
2023/09/12 13:30:51;;;;;;;3.00;1.40;;;;;;;;;;4922108;29;20040;-74
2023/09/12 13:33:17;;;;;;;1.30;1.08;;;;;;;;;;4908575;29;20027;-70
2023/09/12 13:35:43;;;;;;;3.10;1.50;;;;;;;;;;4903869;29;20028;-73
2023/09/12 13:38:09;;;;;;;2.47;1.42;;;;;;;;;;4921752;29;20541;-71
2023/09/12 13:40:39;;;;;;;2.15;1.30;;;;;;;;;;4905920;29;20028;-71
2023/09/12 13:43:05;;;;;;;1.92;1.33;;;;;;;;;;4904390;29;20074;-70
2023/09/12 13:45:31;;;;;;;1.95;1.20;;;;;;;;;;4921562;29;20035;-74
2023/09/12 13:47:58;;;;;;;2.15;1.20;;;;;;;;;;4922578;29;20050;-71
2023/09/12 13:50:25;;;;;;;2.20;1.20;;;;;;;;;;4921309;29;20622;-72
2023/09/12 13:52:51;;;;;;;2.55;1.50;;;;;;;;;;4904293;29;20024;-71
2023/09/12 13:55:17;;;;;;;4.63;1.67;;;;;;;;;;4921156;29;20028;-74
2023/09/12 13:57:51;;;;;;;1.80;1.23;;;;;;;;;;5074053;28;20441;-72
2023/09/12 14:00:18;;;;;;;1.70;1.05;;;;;;;;;;5074306;28;20091;-72
2023/09/12 14:02:44;;;;;;;2.10;0.80;;;;;;;;;;5074025;28;20485;-73
2023/09/12 14:05:12;;;;;;;1.73;1.00;;;;;;;;;;5074397;28;20031;-70
2023/09/12 14:07:39;;;;;;;1.58;1.10;;;;;;;;;;5072841;28;20372;-75
2023/09/12 14:10:05;;;;;;;2.38;1.10;;;;;;;;;;5074087;28;20032;-68
2023/09/12 14:12:31;;;;;;;1.48;1.10;;;;;;;;;;5073461;28;20020;-69
2023/09/12 14:14:57;;;;;;;1.20;0.70;;;;;;;;;;5072837;28;20128;-70
2023/09/12 14:17:23;;;;;;;2.33;1.02;;;;;;;;;;5059148;28;20389;-69
2023/09/12 14:19:49;;;;;;;1.60;0.88;;;;;;;;;;5055925;28;20051;-70
2023/09/12 14:22:15;;;;;;;1.83;1.00;;;;;;;;;;5052034;28;20385;-69
2023/09/12 14:24:41;;;;;;;15.60;1.48;;;;;;;;;;5052649;28;20056;-68
2023/09/12 14:27:07;;;;;;;1.90;1.00;;;;;;;;;;5060297;28;20025;-68
2023/09/12 14:29:33;;;;;;;2.63;0.98;;;;;;;;;;5054159;28;20109;-76
2023/09/12 14:31:59;;;;;;;3.55;0.88;;;;;;;;;;5052218;28;20017;-73
2023/09/12 14:34:31;;;;;;;1.55;1.08;;;;;;;;;;5053219;28;20124;-70
2023/09/12 14:36:57;;;;;;;2.38;1.30;;;;;;;;;;5053510;28;20021;-68
2023/09/12 14:39:23;;;;;;;1.25;0.90;;;;;;;;;;5052986;28;20025;-68
2023/09/12 14:41:51;;;;;;;2.20;1.30;;;;;;;;;;5054466;28;20562;-68
2023/09/12 14:44:27;;;;;;;1.38;0.98;;;;;;;;;;5055622;28;20397;-68